Time;durP1;ratioP1;P1;durP2;ratioP2;P2;SDS_P1;SDS_P2;PMS_P1;PMS_P2;Temp;Humidity;BMP_temperature;BMP_pressure;BME280_temperature;BME280_humidity;BME280_pressure;Samples;Min_cycle;Max_cycle;Signal;HPM_P1;HPM_P2
2022/01/18 00:02:24;;;;;;;23.67;6.53;;;;;;;6.24;90.72;101886.97;5068116;28;20036;-87
2022/01/18 00:04:50;;;;;;;23.00;6.95;;;;;;;6.22;90.94;101880.88;5050215;28;20538;-87
2022/01/18 00:07:15;;;;;;;32.05;7.18;;;;;;;6.39;90.08;101889.69;5067402;28;20824;-87
2022/01/18 00:09:40;;;;;;;27.33;7.47;;;;;;;6.21;90.54;101881.88;5066788;28;20590;-86
2022/01/18 00:18:07;;;;;;;22.05;7.38;;;;;;;6.21;91.35;101909.81;5025942;28;20884;-87
2022/01/18 00:21:15;;;;;;;16.65;4.53;;;;;;;6.14;91.95;101909.72;5053961;28;20535;-87
2022/01/18 00:23:41;;;;;;;19.60;6.75;;;;;;;6.22;91.14;101905.25;5066405;28;20040;-87
2022/01/18 00:26:08;;;;;;;14.25;4.72;;;;;;;6.16;90.90;101902.25;5082997;28;20028;-87
2022/01/18 00:28:36;;;;;;;16.92;5.25;;;;;;;6.18;91.13;101911.03;5048393;28;20423;-87
2022/01/18 00:36:01;;;;;;;18.23;5.38;;;;;;;6.15;91.47;101916.81;5066987;28;20024;-87
2022/01/18 00:38:45;;;;;;;19.58;4.72;;;;;;;6.25;90.82;101910.31;5066196;28;20460;-87
2022/01/18 00:41:11;;;;;;;12.85;4.13;;;;;;;6.13;91.35;101918.03;5065697;28;20024;-87
2022/01/18 00:43:37;;;;;;;14.88;4.95;;;;;;;6.01;92.24;101928.41;5066293;28;20091;-86
2022/01/18 00:46:03;;;;;;;21.85;5.47;;;;;;;6.03;92.15;101934.50;5048958;28;20041;-87
2022/01/18 00:48:32;;;;;;;13.30;3.95;;;;;;;6.19;91.60;101933.56;5048907;28;20052;-86
2022/01/18 00:50:58;;;;;;;16.02;4.95;;;;;;;6.17;91.18;101936.44;5066428;28;20048;-87
2022/01/18 00:53:38;;;;;;;14.43;6.00;;;;;;;6.14;91.57;101950.34;5066647;28;20533;-87
2022/01/18 00:58:30;;;;;;;18.10;4.38;;;;;;;6.01;92.13;101947.38;5066183;28;20020;-87
2022/01/18 01:00:55;;;;;;;14.55;5.13;;;;;;;6.02;91.87;101940.94;5066670;28;20043;-87
2022/01/18 01:03:20;;;;;;;16.52;5.05;;;;;;;6.05;92.25;101949.53;5066747;28;20115;-88
2022/01/18 01:05:46;;;;;;;22.48;5.78;;;;;;;6.12;91.84;101938.84;5065824;28;20046;-87
2022/01/18 01:08:11;;;;;;;10.40;4.40;;;;;;;6.07;92.07;101933.13;5066699;28;20031;-87
2022/01/18 01:10:37;;;;;;;17.23;5.07;;;;;;;6.15;90.85;101937.66;5064760;28;20037;-87
2022/01/18 01:13:03;;;;;;;13.65;3.88;;;;;;;6.14;91.45;101952.22;5067057;28;20127;-86
2022/01/18 01:15:31;;;;;;;14.57;3.78;;;;;;;6.15;92.20;101941.19;5048138;28;20102;-87
2022/01/18 01:18:33;;;;;;;16.60;4.47;;;;;;;6.21;91.16;101938.78;5066988;28;20479;-87
2022/01/18 01:32:19;;;;;;;21.38;5.30;;;;;;;6.17;91.31;101952.69;5066574;28;20578;-88
2022/01/18 01:48:30;;;;;;;8.55;2.47;;;;;;;6.30;90.00;101953.97;5058377;28;20086;-87
2022/01/18 01:51:05;;;;;;;13.60;3.53;;;;;;;6.21;90.47;101963.16;5048398;28;20028;-88
2022/01/18 01:53:32;;;;;;;12.35;3.22;;;;;;;6.37;89.17;101962.19;5063951;28;20056;-88
2022/01/18 01:55:58;;;;;;;10.95;3.05;;;;;;;6.18;89.75;101951.66;5064897;28;20036;-87
2022/01/18 01:58:24;;;;;;;7.75;3.08;;;;;;;6.18;90.55;101959.78;5083995;28;20080;-87
2022/01/18 02:00:53;;;;;;;9.05;3.10;;;;;;;6.07;89.38;101958.38;5077146;28;20376;-87
2022/01/18 02:03:19;;;;;;;12.88;4.35;;;;;;;6.17;89.74;101960.81;5065798;28;20043;-87
2022/01/18 02:05:45;;;;;;;6.32;1.85;;;;;;;6.29;89.62;101957.69;5048151;28;20025;-85
2022/01/18 02:08:12;;;;;;;22.25;3.22;;;;;;;6.41;88.46;101942.66;5065816;28;20025;-87
2022/01/18 02:10:38;;;;;;;9.25;3.00;;;;;;;6.36;88.20;101950.53;5065430;28;20452;-86
2022/01/18 02:13:05;;;;;;;4.65;1.83;;;;;;;6.11;89.88;101953.41;5048232;28;20499;-87
2022/01/18 02:15:31;;;;;;;12.10;3.17;;;;;;;6.16;90.47;101955.59;5065281;28;20021;-87
2022/01/18 02:23:29;;;;;;;8.82;2.63;;;;;;;6.11;90.85;101945.28;5086147;28;20074;-87
2022/01/18 02:25:55;;;;;;;22.65;3.30;;;;;;;6.18;90.48;101948.94;5085741;28;20028;-88
2022/01/18 02:28:22;;;;;;;14.65;4.22;;;;;;;6.04;91.58;101949.72;5084795;28;20016;-86
2022/01/18 02:30:48;;;;;;;22.55;3.53;;;;;;;6.08;91.65;101945.66;5076148;28;20078;-87
2022/01/18 02:33:14;;;;;;;18.60;3.42;;;;;;;6.17;91.04;101941.88;5064251;28;20029;-87
2022/01/18 02:35:40;;;;;;;14.05;2.78;;;;;;;6.07;91.98;101943.97;5065472;28;20032;-88
2022/01/18 02:38:05;;;;;;;16.90;3.35;;;;;;;6.09;91.50;101946.50;5064866;28;20434;-87
2022/01/18 02:40:32;;;;;;;11.85;2.97;;;;;;;6.10;91.82;101949.03;5065483;28;20016;-87
2022/01/18 02:43:01;;;;;;;13.68;5.30;;;;;;;6.08;91.61;101951.09;5065654;28;20054;-87
2022/01/18 02:45:27;;;;;;;14.68;3.83;;;;;;;5.96;92.17;101950.59;5064835;28;20055;-87
2022/01/18 02:47:54;;;;;;;14.45;3.83;;;;;;;6.04;91.99;101933.47;5065487;28;20353;-87
2022/01/18 02:50:21;;;;;;;13.07;3.42;;;;;;;6.01;92.14;101941.94;5064870;28;20021;-88
2022/01/18 02:52:47;;;;;;;12.60;2.95;;;;;;;6.13;91.72;101929.72;5065216;28;20025;-87
2022/01/18 02:55:13;;;;;;;14.02;3.63;;;;;;;6.11;91.69;101939.88;5065260;28;20022;-87
2022/01/18 02:57:53;;;;;;;12.50;2.78;;;;;;;5.96;92.65;101935.22;5064945;28;20021;-88
2022/01/18 03:00:27;;;;;;;11.50;4.97;;;;;;;6.00;92.14;101935.69;5064740;28;20028;-88
2022/01/18 03:05:36;;;;;;;10.00;3.45;;;;;;;5.85;92.86;101941.06;5065938;28;20876;-87
2022/01/18 03:08:01;;;;;;;23.02;5.13;;;;;;;5.83;93.33;101938.53;5065309;28;20021;-87
2022/01/18 03:10:27;;;;;;;16.38;5.75;;;;;;;5.87;93.31;101946.28;5064989;28;20039;-87
2022/01/18 03:12:52;;;;;;;26.50;3.75;;;;;;;5.80;93.14;101956.97;5045562;28;20044;-87
2022/01/18 03:18:21;;;;;;;17.52;4.95;;;;;;;5.81;93.66;101945.13;5061565;28;20054;-88
2022/01/18 03:20:46;;;;;;;7.93;2.85;;;;;;;5.99;92.94;101949.41;5065333;28;20387;-88
2022/01/18 03:23:17;;;;;;;20.90;6.15;;;;;;;5.93;92.41;101951.84;5064472;28;20374;-87
2022/01/18 03:25:55;;;;;;;15.07;5.45;;;;;;;5.83;93.25;101953.94;5064399;28;20264;-88
2022/01/18 03:28:22;;;;;;;26.10;7.18;;;;;;;5.88;93.59;101959.63;5064279;28;20088;-88
2022/01/18 03:30:51;;;;;;;25.10;7.50;;;;;;;5.92;93.05;101955.53;5065361;28;20542;-87
2022/01/18 03:33:19;;;;;;;20.85;6.00;;;;;;;5.84;93.07;101955.59;5045967;28;20063;-88
2022/01/18 03:35:45;;;;;;;31.13;7.05;;;;;;;5.92;93.50;101954.72;5064945;28;20093;-88
2022/01/18 03:38:12;;;;;;;20.15;6.38;;;;;;;5.89;93.23;101950.50;5064600;28;20032;-87
2022/01/18 03:40:38;;;;;;;19.30;5.97;;;;;;;5.88;93.82;101948.81;5064802;28;20529;-86
2022/01/18 03:43:06;;;;;;;33.60;6.05;;;;;;;5.84;94.01;101958.31;5064389;28;20020;-87
2022/01/18 03:45:40;;;;;;;13.25;6.00;;;;;;;5.90;93.50;101960.28;5045933;28;20464;-87
2022/01/18 03:48:09;;;;;;;19.13;5.15;;;;;;;5.80;93.54;101963.25;5045289;28;20400;-87
2022/01/18 03:50:35;;;;;;;19.35;6.53;;;;;;;5.82;93.85;101958.50;5026142;28;20037;-87
2022/01/18 03:55:44;;;;;;;17.85;6.55;;;;;;;5.94;93.00;101958.91;5039642;28;20147;-87
2022/01/18 03:58:09;;;;;;;25.77;6.60;;;;;;;5.90;93.19;101960.28;5043959;28;20029;-87
2022/01/18 04:00:35;;;;;;;25.27;6.57;;;;;;;5.92;92.90;101955.53;5044626;28;20045;-87
2022/01/18 04:03:00;;;;;;;17.98;5.30;;;;;;;5.96;92.59;101961.44;5043893;28;20112;-88
2022/01/18 04:05:38;;;;;;;13.02;4.93;;;;;;;6.02;92.65;101959.91;5044379;28;20039;-87
2022/01/18 04:08:03;;;;;;;20.40;6.50;;;;;;;5.90;93.23;101965.72;5059684;28;20029;-87
2022/01/18 04:10:29;;;;;;;22.48;5.30;;;;;;;5.94;92.70;101969.75;5044512;28;20031;-87
2022/01/18 04:12:56;;;;;;;22.25;6.15;;;;;;;5.99;92.45;101965.66;5050771;28;20020;-87
2022/01/18 04:15:23;;;;;;;25.98;7.80;;;;;;;5.93;92.61;101961.81;5068038;28;20085;-88
2022/01/18 04:26:00;;;;;;;;;;;;;;;5.85;93.37;101973.53;5088192;28;20112;-87
2022/01/18 04:28:40;;;;;;;29.45;7.10;;;;;;;5.86;93.33;101966.28;5087248;28;19920;-88
2022/01/18 04:31:07;;;;;;;15.40;5.88;;;;;;;5.81;92.72;101966.78;5076606;28;20029;-87
2022/01/18 04:36:36;;;;;;;10.75;4.50;;;;;;;5.80;93.32;101968.66;5063626;28;20074;-87
2022/01/18 04:39:02;;;;;;;20.35;4.95;;;;;;;5.78;93.05;101965.28;5067535;28;20048;-87
2022/01/18 04:41:30;;;;;;;14.30;4.85;;;;;;;5.83;93.24;101964.75;5067368;28;20036;-87
2022/01/18 04:49:11;;;;;;;16.40;4.30;;;;;;;5.89;92.38;101957.78;5068083;28;20063;-86
2022/01/18 04:51:37;;;;;;;17.48;4.80;;;;;;;5.90;92.54;101964.88;5066752;28;20025;-87
2022/01/18 04:54:06;;;;;;;16.48;4.50;;;;;;;6.01;92.13;101963.63;5067546;28;20028;-87
2022/01/18 04:59:02;;;;;;;8.88;3.90;;;;;;;6.00;91.46;101970.06;5066220;28;20108;-87
2022/01/18 05:01:27;;;;;;;22.05;3.88;;;;;;;5.95;92.26;101982.28;5049233;28;20028;-86
2022/01/18 05:03:52;;;;;;;13.32;4.65;;;;;;;5.95;91.99;101981.44;5066525;28;20025;-87
2022/01/18 05:06:19;;;;;;;34.55;4.53;;;;;;;5.87;91.91;101982.31;5067440;28;20107;-87
2022/01/18 05:08:45;;;;;;;11.35;3.63;;;;;;;5.92;92.33;101985.34;5066620;28;20028;-86
2022/01/18 05:11:14;;;;;;;15.50;5.32;;;;;;;6.07;91.74;101990.00;5066664;28;20043;-87
2022/01/18 05:19:39;;;;;;;;;;;;;;;5.89;92.35;101992.97;5067771;28;20085;-87
2022/01/18 05:24:26;;;;;;;13.25;3.83;;;;;;;5.85;93.06;101995.19;5085921;28;20036;-87
2022/01/18 05:26:53;;;;;;;13.00;5.72;;;;;;;5.93;92.04;101989.75;5068689;28;20031;-87
2022/01/18 05:29:19;;;;;;;14.32;6.88;;;;;;;5.85;92.80;101987.06;5086144;28;20424;-87
2022/01/18 05:31:45;;;;;;;13.15;5.18;;;;;;;5.84;92.55;101997.06;5069851;28;20036;-87
2022/01/18 05:34:12;;;;;;;20.35;5.28;;;;;;;5.81;93.05;102002.00;5047811;28;20036;-87
2022/01/18 05:36:37;;;;;;;23.25;5.00;;;;;;;5.94;92.61;101996.81;5066379;28;20112;-87
2022/01/18 05:39:04;;;;;;;18.77;5.03;;;;;;;5.91;92.61;102002.63;5066046;28;20111;-87
2022/01/18 05:41:30;;;;;;;15.88;6.85;;;;;;;5.96;91.28;101993.94;5065935;28;20082;-87
2022/01/18 05:43:55;;;;;;;15.20;6.15;;;;;;;5.93;92.69;101997.88;5066249;28;20036;-87
2022/01/18 05:46:20;;;;;;;15.65;5.10;;;;;;;5.82;92.95;101992.84;5065852;28;20032;-87
2022/01/18 05:48:46;;;;;;;11.47;5.30;;;;;;;5.81;93.28;101996.56;5070113;28;20487;-87
2022/01/18 05:51:12;;;;;;;16.20;6.38;;;;;;;5.84;93.06;101996.22;5085936;28;20268;-88
2022/01/18 05:53:39;;;;;;;18.95;7.00;;;;;;;5.91;92.42;101990.94;5068669;28;20020;-85
2022/01/18 05:56:06;;;;;;;21.02;5.50;;;;;;;5.90;92.71;101995.50;5085618;28;20032;-87
2022/01/18 05:58:32;;;;;;;16.27;6.13;;;;;;;5.91;92.45;101997.19;5086073;28;20499;-87
2022/01/18 06:00:57;;;;;;;12.85;5.32;;;;;;;5.79;92.93;101993.19;5075566;28;20029;-87
2022/01/18 06:03:52;;;;;;;19.45;7.18;;;;;;;6.08;91.53;101991.72;5065490;28;20029;-87
2022/01/18 06:09:02;;;;;;;20.70;7.88;;;;;;;5.94;92.51;102002.25;5065787;28;20039;-87
2022/01/18 06:11:28;;;;;;;22.35;8.40;;;;;;;5.93;91.98;101995.16;5047810;28;20451;-87
2022/01/18 06:13:53;;;;;;;24.48;10.25;;;;;;;6.01;91.63;102002.38;5065237;28;20024;-87
2022/01/18 06:16:18;;;;;;;18.67;7.38;;;;;;;6.04;91.53;102003.91;5047515;28;20329;-88
2022/01/18 06:18:43;;;;;;;19.80;6.80;;;;;;;5.96;91.71;102005.63;5065703;28;20074;-87
2022/01/18 06:21:09;;;;;;;14.10;6.63;;;;;;;5.91;92.54;101999.91;5074035;28;20024;-87
2022/01/18 06:23:35;;;;;;;15.57;5.60;;;;;;;6.04;91.48;102012.84;5085766;28;20533;-87
2022/01/18 06:26:02;;;;;;;13.93;6.65;;;;;;;6.04;91.37;102014.72;5100726;28;20122;-87
2022/01/18 06:28:28;;;;;;;18.98;6.03;;;;;;;5.95;91.75;102009.34;5085593;28;20071;-87
2022/01/18 06:30:54;;;;;;;15.10;6.40;;;;;;;5.80;92.48;102005.69;5075433;28;20726;-87
2022/01/18 06:33:19;;;;;;;14.35;7.47;;;;;;;5.90;92.67;102009.03;5065034;28;20549;-87
2022/01/18 06:35:44;;;;;;;15.10;6.80;;;;;;;5.78;93.05;102008.59;5064523;28;20476;-87
2022/01/18 06:38:10;;;;;;;16.90;6.07;;;;;;;5.90;92.30;102011.75;5065304;28;20035;-86
2022/01/18 06:40:35;;;;;;;18.20;7.50;;;;;;;5.84;92.37;102007.88;5065569;28;20108;-87
2022/01/18 06:43:01;;;;;;;26.08;8.80;;;;;;;5.80;93.14;102016.53;5064655;28;20084;-87
2022/01/18 06:45:26;;;;;;;25.65;8.45;;;;;;;5.80;92.72;102016.53;5047888;28;20029;-87
2022/01/18 06:47:51;;;;;;;16.33;7.13;;;;;;;5.93;92.24;102021.38;5064611;28;20056;-86
2022/01/18 06:50:17;;;;;;;24.25;8.77;;;;;;;5.94;91.95;102020.34;5046923;28;20273;-86
2022/01/18 06:52:42;;;;;;;29.63;10.07;;;;;;;5.90;92.61;102022.56;5065036;28;20039;-87
2022/01/18 06:55:09;;;;;;;40.03;8.98;;;;;;;5.84;92.82;102017.88;5064701;28;20050;-87
2022/01/18 06:57:34;;;;;;;23.38;9.82;;;;;;;5.80;92.93;102025.50;5065165;28;20394;-87
2022/01/18 07:00:00;;;;;;;26.85;10.57;;;;;;;5.84;92.58;102023.28;5061772;28;20234;-87
2022/01/18 07:02:25;;;;;;;20.20;10.65;;;;;;;5.59;93.12;102029.66;5044850;28;20476;-87
2022/01/18 07:04:50;;;;;;;27.40;10.70;;;;;;;5.84;92.71;102023.28;5044398;28;20055;-87
2022/01/18 07:07:17;;;;;;;25.17;9.07;;;;;;;5.80;93.25;102022.78;5044996;28;20305;-87
2022/01/18 07:09:44;;;;;;;25.88;9.05;;;;;;;5.80;93.22;102027.34;5044482;28;20270;-87
2022/01/18 07:15:12;;;;;;;22.38;10.30;;;;;;;5.77;93.00;102027.72;5044582;28;20519;-87
2022/01/18 07:17:38;;;;;;;21.83;9.68;;;;;;;5.89;93.04;102029.03;5044472;28;20029;-87
2022/01/18 07:20:04;;;;;;;25.38;10.63;;;;;;;5.94;92.22;102034.72;5045180;28;20627;-86
2022/01/18 07:22:30;;;;;;;25.67;11.60;;;;;;;6.04;91.63;102033.69;5044030;28;20025;-87
2022/01/18 07:24:57;;;;;;;31.25;10.73;;;;;;;5.99;91.63;102030.66;5045029;28;20526;-86
2022/01/18 07:27:23;;;;;;;31.25;12.65;;;;;;;5.91;92.34;102037.81;5044626;28;20031;-87
2022/01/18 07:29:49;;;;;;;24.00;10.40;;;;;;;5.84;92.72;102028.69;5045630;28;20029;-86
2022/01/18 07:32:15;;;;;;;26.80;10.10;;;;;;;5.89;92.83;102036.28;5065227;28;20032;-87
2022/01/18 07:34:49;;;;;;;27.20;10.50;;;;;;;5.92;92.51;102041.38;5064306;28;20422;-87
2022/01/18 07:37:14;;;;;;;;;;;;;;;5.95;92.15;102047.28;5065404;28;20590;-88
2022/01/18 07:39:39;;;;;;;32.20;13.70;;;;;;;5.80;92.93;102049.88;5064310;28;19912;-87
2022/01/18 07:42:19;;;;;;;29.83;13.60;;;;;;;5.90;92.80;102048.84;5046656;28;20024;-88
2022/01/18 07:44:45;;;;;;;23.83;14.18;;;;;;;5.86;92.68;102052.91;5063884;28;20120;-88
2022/01/18 07:47:10;;;;;;;35.92;15.63;;;;;;;5.82;92.97;102055.94;5066647;28;20103;-87
2022/01/18 07:49:36;;;;;;;28.45;12.68;;;;;;;5.85;92.76;102057.47;5068593;28;20031;-87
2022/01/18 07:52:01;;;;;;;28.00;12.07;;;;;;;5.84;93.14;102053.06;5068319;28;20114;-87
2022/01/18 07:54:27;;;;;;;33.85;14.45;;;;;;;5.89;92.79;102058.81;5068130;28;20139;-87
2022/01/18 07:56:52;;;;;;;32.75;16.60;;;;;;;5.84;92.06;102063.88;5068133;28;20086;-87
2022/01/18 07:59:17;;;;;;;30.77;13.50;;;;;;;5.99;92.18;102072.13;5068147;28;20048;-86
2022/01/18 08:01:43;;;;;;;33.05;14.23;;;;;;;6.03;92.01;102067.19;5067793;28;20110;-88
2022/01/18 08:04:09;;;;;;;34.70;14.88;;;;;;;5.98;92.00;102069.59;5050129;28;20029;-86
2022/01/18 08:06:34;;;;;;;29.80;14.00;;;;;;;5.99;92.38;102064.00;5068070;28;20025;-87
2022/01/18 08:08:59;;;;;;;37.20;15.15;;;;;;;6.14;90.71;102058.69;5068166;28;20029;-86
2022/01/18 08:14:13;;;;;;;27.88;14.00;;;;;;;5.97;92.36;102068.75;5064326;28;20307;-87
2022/01/18 08:16:48;;;;;;;31.30;16.08;;;;;;;6.03;92.21;102069.91;5068157;28;20040;-87
2022/01/18 08:19:14;;;;;;;39.25;17.08;;;;;;;6.15;91.98;102071.22;5049733;28;20040;-87
2022/01/18 08:21:40;;;;;;;27.95;14.20;;;;;;;6.05;92.09;102074.13;5081134;28;20158;-87
2022/01/18 08:24:05;;;;;;;34.78;13.93;;;;;;;6.05;92.00;102079.53;5087807;28;20134;-87
2022/01/18 08:26:30;;;;;;;27.40;14.93;;;;;;;6.05;92.38;102078.69;5086332;28;20361;-87
2022/01/18 08:28:56;;;;;;;29.48;15.57;;;;;;;5.99;92.77;102076.69;5087653;28;20269;-87
2022/01/18 08:31:21;;;;;;;33.97;17.83;;;;;;;6.10;92.05;102079.06;5073286;28;20025;-88
2022/01/18 08:33:46;;;;;;;38.80;17.90;;;;;;;6.20;91.84;102070.69;5064950;28;20095;-87
2022/01/18 08:36:12;;;;;;;36.08;14.55;;;;;;;6.17;91.30;102071.03;5067324;28;20529;-87
2022/01/18 08:38:39;;;;;;;41.25;16.05;;;;;;;6.14;91.96;102069.53;5067146;28;20107;-87
2022/01/18 08:41:06;;;;;;;52.25;17.38;;;;;;;6.21;91.63;102068.81;5067084;28;20170;-88
2022/01/18 08:43:31;;;;;;;33.95;15.52;;;;;;;6.28;91.64;102078.78;5066949;28;20460;-87
2022/01/18 08:45:58;;;;;;;28.55;13.82;;;;;;;6.20;91.41;102081.53;5049108;28;20106;-87
2022/01/18 08:48:24;;;;;;;30.60;13.93;;;;;;;6.23;91.63;102077.59;5066562;28;20059;-87
2022/01/18 08:50:49;;;;;;;27.83;14.63;;;;;;;6.22;91.77;102081.34;5067080;28;20074;-87
2022/01/18 08:53:15;;;;;;;54.92;17.65;;;;;;;6.17;91.34;102085.44;5066995;28;20048;-87
2022/01/18 08:55:40;;;;;;;32.17;14.57;;;;;;;6.27;91.74;102077.06;5067112;28;20311;-87
2022/01/18 08:58:05;;;;;;;34.55;14.68;;;;;;;6.19;91.93;102079.81;5059604;28;20037;-87
2022/01/18 09:00:31;;;;;;;35.25;15.32;;;;;;;6.36;91.56;102080.59;5066836;28;20024;-86
2022/01/18 09:02:57;;;;;;;40.72;15.75;;;;;;;6.38;90.63;102081.25;5049086;28;20021;-87
2022/01/18 09:05:24;;;;;;;32.50;15.25;;;;;;;6.18;91.30;102084.41;5062684;28;20415;-87
2022/01/18 09:07:52;;;;;;;40.97;16.00;;;;;;;6.14;91.36;102085.78;5067522;28;20044;-87
2022/01/18 09:10:18;;;;;;;37.20;16.33;;;;;;;6.38;90.94;102092.09;5054735;28;20405;-87
2022/01/18 09:12:43;;;;;;;30.85;13.35;;;;;;;6.45;90.99;102088.66;5049093;28;20570;-86
2022/01/18 09:15:10;;;;;;;32.60;16.02;;;;;;;6.59;90.65;102079.72;5066913;28;20029;-87
2022/01/18 09:17:38;;;;;;;54.60;18.48;;;;;;;6.47;90.92;102089.31;5048419;28;20094;-87
2022/01/18 09:20:06;;;;;;;32.45;14.60;;;;;;;6.53;91.08;102097.56;5047647;28;20056;-87
2022/01/18 09:22:38;;;;;;;40.70;15.57;;;;;;;6.43;91.41;102102.38;5068397;28;20131;-88
2022/01/18 09:25:06;;;;;;;29.70;14.85;;;;;;;6.50;91.36;102097.94;5087052;28;20039;-87
2022/01/18 09:27:31;;;;;;;27.20;13.43;;;;;;;6.67;90.02;102107.81;5086403;28;20436;-86
2022/01/18 09:29:57;;;;;;;32.88;14.45;;;;;;;6.62;90.26;102103.78;5084641;28;20027;-87
2022/01/18 09:32:22;;;;;;;32.55;13.65;;;;;;;6.47;90.49;102103.69;5065856;28;20031;-87
2022/01/18 09:34:48;;;;;;;36.33;15.07;;;;;;;6.42;90.85;102108.81;5065873;28;20049;-87
2022/01/18 09:37:13;;;;;;;32.70;15.02;;;;;;;6.51;91.72;102115.03;5066044;28;20842;-86
2022/01/18 09:39:39;;;;;;;36.17;16.53;;;;;;;6.45;91.34;102113.06;5066350;28;20020;-87
2022/01/18 09:42:05;;;;;;;31.55;14.57;;;;;;;6.47;91.49;102114.53;5066730;28;20813;-88
2022/01/18 09:44:30;;;;;;;28.92;14.00;;;;;;;6.51;91.17;102115.03;5065553;28;20036;-87
2022/01/18 09:46:56;;;;;;;35.85;16.55;;;;;;;6.84;89.58;102117.50;5046013;28;20032;-87
2022/01/18 09:49:35;;;;;;;32.30;16.60;;;;;;;6.64;89.99;102118.00;5066394;28;20043;-88
2022/01/18 09:52:01;;;;;;;29.98;11.95;;;;;;;6.64;90.40;102125.28;5065868;28;20028;-87
2022/01/18 09:54:26;;;;;;;30.08;12.55;;;;;;;6.75;90.04;102119.44;5066280;28;20020;-87
2022/01/18 09:56:51;;;;;;;39.90;15.82;;;;;;;6.80;90.12;102110.75;5065699;28;20025;-87
2022/01/18 09:59:17;;;;;;;28.88;13.32;;;;;;;6.86;89.85;102120.03;5047960;28;20031;-87
2022/01/18 10:01:43;;;;;;;38.72;15.55;;;;;;;6.75;89.07;102127.56;5047516;28;20028;-87
2022/01/18 10:04:19;;;;;;;31.42;13.27;;;;;;;6.94;88.86;102113.69;5066290;28;20039;-88
2022/01/18 10:06:50;;;;;;;41.60;12.10;;;;;;;7.04;88.48;102122.41;5066092;28;20424;-88
2022/01/18 10:09:18;;;;;;;38.45;14.30;;;;;;;7.09;88.98;102120.03;5065512;28;20418;-86
2022/01/18 10:12:05;;;;;;;36.35;16.52;;;;;;;6.88;89.37;102118.81;5065757;28;20032;-87
2022/01/18 10:14:31;;;;;;;30.23;13.93;;;;;;;6.89;88.68;102116.97;5065445;28;20082;-87
2022/01/18 10:16:57;;;;;;;39.17;15.80;;;;;;;7.11;88.49;102114.41;5066170;28;20036;-87
2022/01/18 10:19:36;;;;;;;38.10;14.25;;;;;;;7.13;87.98;102112.34;5065131;28;20028;-87
2022/01/18 10:22:09;;;;;;;26.33;12.88;;;;;;;7.08;88.59;102118.31;5063569;28;20024;-87
2022/01/18 10:24:35;;;;;;;25.10;11.50;;;;;;;7.15;88.50;102112.16;5085615;28;20262;-87
2022/01/18 10:27:00;;;;;;;26.75;12.63;;;;;;;7.14;89.02;102108.59;5085661;28;20035;-88
2022/01/18 10:29:29;;;;;;;27.45;11.98;;;;;;;7.32;87.47;102105.53;5085644;28;20024;-86
2022/01/18 10:32:00;;;;;;;33.53;14.07;;;;;;;7.22;88.01;102113.94;5066688;28;20181;-88
2022/01/18 10:37:08;;;;;;;49.78;13.27;;;;;;;7.23;87.14;102101.22;5065472;28;20040;-87
2022/01/18 10:39:41;;;;;;;26.80;13.45;;;;;;;7.00;86.85;102102.09;5065311;28;20513;-87
2022/01/18 10:42:39;;;;;;;35.67;12.60;;;;;;;7.11;87.72;102098.97;5065097;28;20051;-87
2022/01/18 10:45:07;;;;;;;31.67;11.45;;;;;;;7.14;87.24;102091.50;5064618;28;20036;-87
2022/01/18 10:47:34;;;;;;;30.73;8.80;;;;;;;7.28;87.21;102098.78;5047465;28;20090;-86
2022/01/18 10:50:14;;;;;;;24.90;10.55;;;;;;;7.41;86.51;102086.47;5064796;28;20020;-87
2022/01/18 10:52:39;;;;;;;35.92;11.02;;;;;;;7.18;87.67;102092.81;5064864;28;20509;-87
2022/01/18 10:55:07;;;;;;;24.48;12.57;;;;;;;7.22;86.86;102088.72;5047236;28;20021;-87
2022/01/18 10:57:38;;;;;;;28.45;13.90;;;;;;;7.24;87.60;102086.66;5064550;28;20111;-87
2022/01/18 11:00:09;;;;;;;34.10;12.30;;;;;;;7.48;86.38;102076.56;5065027;28;20040;-87
2022/01/18 11:02:37;;;;;;;37.00;12.55;;;;;;;7.35;85.04;102078.03;5064977;28;20028;-87
2022/01/18 11:05:25;;;;;;;39.13;13.50;;;;;;;7.38;85.48;102074.13;5064847;28;20025;-87
2022/01/18 11:07:52;;;;;;;19.48;9.70;;;;;;;7.19;85.24;102073.63;5065063;28;20105;-87
2022/01/18 11:10:23;;;;;;;34.28;11.25;;;;;;;7.54;84.70;102069.53;5046741;28;20446;-87
2022/01/18 11:13:01;;;;;;;29.33;11.25;;;;;;;7.33;85.48;102071.97;5047281;28;20039;-87
2022/01/18 11:15:28;;;;;;;22.58;12.02;;;;;;;7.35;86.14;102063.63;5064743;28;20099;-87
2022/01/18 11:18:00;;;;;;;22.75;13.25;;;;;;;7.55;85.39;102063.91;5065063;28;20036;-87
2022/01/18 11:20:28;;;;;;;34.03;12.35;;;;;;;7.46;85.07;102067.75;5067540;28;20024;-87
2022/01/18 11:22:55;;;;;;;31.35;12.07;;;;;;;7.42;85.82;102059.16;5087967;28;20096;-87
2022/01/18 11:25:22;;;;;;;34.22;11.68;;;;;;;7.49;84.98;102061.94;5089150;28;20051;-87
2022/01/18 11:27:51;;;;;;;25.90;12.48;;;;;;;7.50;85.32;102062.78;5088914;28;20491;-87
2022/01/18 11:30:21;;;;;;;25.58;11.93;;;;;;;7.61;83.83;102053.34;5072988;28;20036;-88
2022/01/18 11:32:50;;;;;;;22.58;10.13;;;;;;;7.58;85.18;102058.13;5068854;28;20527;-87
2022/01/18 11:35:40;;;;;;;25.27;10.85;;;;;;;7.57;84.71;102059.13;5068571;28;20083;-88
2022/01/18 11:38:16;;;;;;;29.15;10.32;;;;;;;7.89;84.09;102049.94;5068567;28;20059;-87
2022/01/18 11:40:48;;;;;;;32.65;13.55;;;;;;;7.71;83.82;102048.44;5050263;28;20491;-87
2022/01/18 11:43:15;;;;;;;27.23;11.90;;;;;;;7.56;83.63;102051.19;5067908;28;20025;-87
2022/01/18 11:45:43;;;;;;;33.72;11.25;;;;;;;7.65;84.24;102055.47;5067808;28;20123;-87
2022/01/18 11:48:20;;;;;;;26.10;10.68;;;;;;;7.70;84.19;102050.31;5048617;28;20490;-87
2022/01/18 11:51:05;;;;;;;33.38;11.02;;;;;;;7.55;83.24;102044.91;5048462;28;20033;-86
2022/01/18 11:54:16;;;;;;;25.05;9.32;;;;;;;7.68;83.84;102044.25;5047820;28;20044;-87
2022/01/18 11:56:35;;;;;;;19.48;8.27;;;;;;;7.61;83.15;102043.31;5047633;28;20037;-87
2022/01/18 11:59:15;;;;;;;21.95;9.85;;;;;;;7.65;83.55;102043.75;5047806;28;20112;-87
2022/01/18 12:01:55;;;;;;;22.85;8.57;;;;;;;7.67;83.67;102036.25;5047940;28;20024;-86
2022/01/18 12:07:04;;;;;;;31.57;11.87;;;;;;;8.19;82.07;102047.13;5068001;28;20123;-87
2022/01/18 12:09:35;;;;;;;29.02;10.90;;;;;;;8.34;81.59;102046.25;5068016;28;20112;-86
2022/01/18 12:12:00;;;;;;;27.60;11.18;;;;;;;8.22;81.89;102044.00;5067578;28;20078;-87
2022/01/18 12:14:35;;;;;;;22.83;10.05;;;;;;;7.81;81.06;102040.84;5067432;28;20747;-87
2022/01/18 12:17:16;;;;;;;26.10;10.57;;;;;;;8.05;81.72;102027.94;5068042;28;20032;-87
2022/01/18 12:19:47;;;;;;;26.58;8.85;;;;;;;7.93;80.96;102040.38;5067701;28;20028;-86
2022/01/18 12:22:13;;;;;;;23.75;9.43;;;;;;;8.25;81.03;102031.91;5086122;28;20036;-87
2022/01/18 12:24:46;;;;;;;21.90;8.63;;;;;;;8.14;81.73;102025.09;5087810;28;20032;-87
2022/01/18 12:27:31;;;;;;;20.13;8.63;;;;;;;8.09;81.78;102028.41;5087519;28;20039;-87
2022/01/18 12:31:34;;;;;;;19.08;10.00;;;;;;;8.36;80.41;102022.41;5049748;28;20029;-87
2022/01/18 12:33:19;;;;;;;19.10;6.97;;;;;;;8.21;78.98;102026.03;5057603;28;20045;-87
2022/01/18 12:35:45;;;;;;;19.65;9.93;;;;;;;8.50;80.22;102018.75;5067365;28;20384;-87
2022/01/18 12:38:24;;;;;;;31.52;9.77;;;;;;;8.38;80.59;102010.28;5060881;28;20021;-86
2022/01/18 12:40:49;;;;;;;20.92;9.77;;;;;;;8.55;80.34;102020.06;5046954;28;20075;-88
2022/01/18 12:45:45;;;;;;;19.90;10.35;;;;;;;8.59;80.56;102015.94;5050379;28;20067;-87
2022/01/18 12:48:13;;;;;;;20.20;7.82;;;;;;;8.45;79.14;102015.81;5059640;28;20077;-87
2022/01/18 12:50:45;;;;;;;19.75;7.45;;;;;;;8.20;80.01;102020.81;5066354;28;20040;-86
2022/01/18 12:53:18;;;;;;;19.55;7.80;;;;;;;8.29;80.37;102011.47;5064315;28;20537;-87
2022/01/18 12:55:55;;;;;;;20.98;8.70;;;;;;;8.19;81.75;102022.66;5066333;28;20068;-87
2022/01/18 12:58:35;;;;;;;22.63;10.75;;;;;;;8.16;79.36;102012.16;5066361;28;20028;-87
2022/01/18 13:01:12;;;;;;;13.98;6.57;;;;;;;7.85;79.16;102010.59;5065312;28;20042;-87
2022/01/18 13:03:41;;;;;;;17.65;7.65;;;;;;;7.83;79.60;102010.78;5065128;28;20025;-86
2022/01/18 13:06:13;;;;;;;17.33;6.65;;;;;;;7.92;78.96;102006.06;5066440;28;20031;-87